sensor_id;sensor_type;location;lat;lon;timestamp;P1;durP1;ratioP1;P2;durP2;ratioP2
57643;SDS011;43474;46.510;6.686;2023-03-01T00:01:09;427.40;;;404.52;;
57643;SDS011;43474;46.510;6.686;2023-03-01T00:03:37;439.25;;;415.70;;
57643;SDS011;43474;46.510;6.686;2023-03-01T00:06:03;433.10;;;409.92;;
57643;SDS011;43474;46.510;6.686;2023-03-01T00:08:30;433.02;;;409.25;;
57643;SDS011;43474;46.510;6.686;2023-03-01T00:13:30;432.02;;;408.73;;
57643;SDS011;43474;46.510;6.686;2023-03-01T00:15:56;344.70;;;326.20;;
57643;SDS011;43474;46.510;6.686;2023-03-01T00:18:22;424.85;;;402.70;;
57643;SDS011;43474;46.510;6.686;2023-03-01T00:20:51;406.40;;;385.15;;
57643;SDS011;43474;46.510;6.686;2023-03-01T00:23:18;399.80;;;379.20;;
57643;SDS011;43474;46.510;6.686;2023-03-01T00:25:44;388.67;;;368.50;;
57643;SDS011;43474;46.510;6.686;2023-03-01T00:28:10;407.17;;;385.42;;
57643;SDS011;43474;46.510;6.686;2023-03-01T00:30:36;430.45;;;407.17;;
57643;SDS011;43474;46.510;6.686;2023-03-01T00:33:02;391.95;;;371.33;;
57643;SDS011;43474;46.510;6.686;2023-03-01T00:35:27;438.20;;;414.48;;
57643;SDS011;43474;46.510;6.686;2023-03-01T00:37:53;388.45;;;367.85;;
57643;SDS011;43474;46.510;6.686;2023-03-01T00:40:33;397.50;;;376.73;;
57643;SDS011;43474;46.510;6.686;2023-03-01T00:43:00;368.58;;;349.98;;
57643;SDS011;43474;46.510;6.686;2023-03-01T00:45:26;398.05;;;377.40;;
57643;SDS011;43474;46.510;6.686;2023-03-01T00:47:53;443.20;;;419.63;;
57643;SDS011;43474;46.510;6.686;2023-03-01T00:50:18;435.75;;;412.17;;
57643;SDS011;43474;46.510;6.686;2023-03-01T00:52:45;389.85;;;369.50;;
57643;SDS011;43474;46.510;6.686;2023-03-01T00:55:11;434.75;;;411.75;;
57643;SDS011;43474;46.510;6.686;2023-03-01T00:57:37;390.20;;;369.50;;
57643;SDS011;43474;46.510;6.686;2023-03-01T01:00:04;398.25;;;377.25;;
57643;SDS011;43474;46.510;6.686;2023-03-01T01:02:31;433.40;;;410.20;;
57643;SDS011;43474;46.510;6.686;2023-03-01T01:04:58;341.73;;;324.00;;
57643;SDS011;43474;46.510;6.686;2023-03-01T01:07:24;433.85;;;410.70;;
57643;SDS011;43474;46.510;6.686;2023-03-01T01:09:49;403.13;;;381.52;;
57643;SDS011;43474;46.510;6.686;2023-03-01T01:12:15;448.02;;;423.38;;
57643;SDS011;43474;46.510;6.686;2023-03-01T01:14:40;411.00;;;389.52;;
57643;SDS011;43474;46.510;6.686;2023-03-01T01:17:06;434.17;;;411.00;;
57643;SDS011;43474;46.510;6.686;2023-03-01T01:19:31;420.02;;;397.45;;
57643;SDS011;43474;46.510;6.686;2023-03-01T01:21:57;417.92;;;395.63;;
57643;SDS011;43474;46.510;6.686;2023-03-01T01:24:23;438.65;;;414.95;;
57643;SDS011;43474;46.510;6.686;2023-03-01T01:26:48;426.45;;;404.33;;
57643;SDS011;43474;46.510;6.686;2023-03-01T01:29:14;388.45;;;368.65;;
57643;SDS011;43474;46.510;6.686;2023-03-01T01:31:41;382.40;;;362.33;;
57643;SDS011;43474;46.510;6.686;2023-03-01T01:34:08;400.50;;;379.77;;
57643;SDS011;43474;46.510;6.686;2023-03-01T01:36:38;443.83;;;419.73;;
57643;SDS011;43474;46.510;6.686;2023-03-01T01:39:04;422.00;;;399.33;;
57643;SDS011;43474;46.510;6.686;2023-03-01T01:41:29;429.05;;;406.42;;
57643;SDS011;43474;46.510;6.686;2023-03-01T01:46:50;448.55;;;424.45;;
57643;SDS011;43474;46.510;6.686;2023-03-01T01:50:09;439.67;;;416.20;;
57643;SDS011;43474;46.510;6.686;2023-03-01T01:52:32;423.50;;;400.95;;
57643;SDS011;43474;46.510;6.686;2023-03-01T01:55:09;436.55;;;412.90;;
57643;SDS011;43474;46.510;6.686;2023-03-01T01:57:47;403.17;;;381.58;;
57643;SDS011;43474;46.510;6.686;2023-03-01T02:00:19;430.48;;;407.38;;
57643;SDS011;43474;46.510;6.686;2023-03-01T02:02:55;397.58;;;376.60;;
57643;SDS011;43474;46.510;6.686;2023-03-01T02:05:35;418.35;;;395.92;;
57643;SDS011;43474;46.510;6.686;2023-03-01T02:08:02;445.50;;;420.83;;
57643;SDS011;43474;46.510;6.686;2023-03-01T02:10:28;421.77;;;399.52;;
57643;SDS011;43474;46.510;6.686;2023-03-01T02:12:55;425.33;;;402.48;;
57643;SDS011;43474;46.510;6.686;2023-03-01T02:15:22;441.23;;;417.30;;
57643;SDS011;43474;46.510;6.686;2023-03-01T02:17:49;376.05;;;356.15;;
57643;SDS011;43474;46.510;6.686;2023-03-01T02:22:52;449.95;;;425.75;;
57643;SDS011;43474;46.510;6.686;2023-03-01T02:25:27;289.70;;;274.17;;
57643;SDS011;43474;46.510;6.686;2023-03-01T02:30:44;427.50;;;404.38;;
57643;SDS011;43474;46.510;6.686;2023-03-01T02:33:31;395.45;;;374.55;;
57643;SDS011;43474;46.510;6.686;2023-03-01T02:36:04;430.42;;;407.38;;
57643;SDS011;43474;46.510;6.686;2023-03-01T02:38:34;412.15;;;390.50;;
57643;SDS011;43474;46.510;6.686;2023-03-01T02:40:59;454.05;;;429.10;;
57643;SDS011;43474;46.510;6.686;2023-03-01T02:43:29;453.58;;;429.00;;
57643;SDS011;43474;46.510;6.686;2023-03-01T02:46:03;448.80;;;424.50;;
57643;SDS011;43474;46.510;6.686;2023-03-01T02:48:47;443.90;;;420.13;;
57643;SDS011;43474;46.510;6.686;2023-03-01T02:56:24;415.80;;;394.23;;
57643;SDS011;43474;46.510;6.686;2023-03-01T02:58:50;434.45;;;411.55;;
57643;SDS011;43474;46.510;6.686;2023-03-01T03:01:17;450.40;;;425.73;;
57643;SDS011;43474;46.510;6.686;2023-03-01T03:03:44;430.98;;;407.90;;
57643;SDS011;43474;46.510;6.686;2023-03-01T03:06:09;412.60;;;391.05;;
57643;SDS011;43474;46.510;6.686;2023-03-01T03:08:35;391.45;;;371.27;;
57643;SDS011;43474;46.510;6.686;2023-03-01T03:11:01;412.33;;;391.10;;
57643;SDS011;43474;46.510;6.686;2023-03-01T03:13:26;396.23;;;375.23;;
57643;SDS011;43474;46.510;6.686;2023-03-01T03:15:56;424.35;;;401.08;;
57643;SDS011;43474;46.510;6.686;2023-03-01T03:18:23;458.75;;;433.48;;
57643;SDS011;43474;46.510;6.686;2023-03-01T03:20:51;458.38;;;433.55;;
57643;SDS011;43474;46.510;6.686;2023-03-01T03:23:19;436.90;;;412.80;;
57643;SDS011;43474;46.510;6.686;2023-03-01T03:25:47;400.85;;;379.80;;
57643;SDS011;43474;46.510;6.686;2023-03-01T03:28:14;456.58;;;431.83;;
57643;SDS011;43474;46.510;6.686;2023-03-01T03:30:41;450.33;;;425.52;;
57643;SDS011;43474;46.510;6.686;2023-03-01T03:33:09;425.95;;;403.02;;
57643;SDS011;43474;46.510;6.686;2023-03-01T03:35:43;385.35;;;365.00;;
57643;SDS011;43474;46.510;6.686;2023-03-01T03:38:13;462.67;;;437.83;;
57643;SDS011;43474;46.510;6.686;2023-03-01T03:40:41;442.02;;;418.45;;
57643;SDS011;43474;46.510;6.686;2023-03-01T03:43:16;436.02;;;412.48;;
57643;SDS011;43474;46.510;6.686;2023-03-01T03:45:46;445.63;;;421.95;;
57643;SDS011;43474;46.510;6.686;2023-03-01T03:48:13;394.23;;;372.95;;
57643;SDS011;43474;46.510;6.686;2023-03-01T03:50:40;397.70;;;375.65;;
57643;SDS011;43474;46.510;6.686;2023-03-01T03:53:07;454.42;;;429.77;;
57643;SDS011;43474;46.510;6.686;2023-03-01T03:55:34;434.70;;;410.85;;
57643;SDS011;43474;46.510;6.686;2023-03-01T03:58:01;454.30;;;429.38;;
57643;SDS011;43474;46.510;6.686;2023-03-01T04:00:32;457.92;;;432.67;;
57643;SDS011;43474;46.510;6.686;2023-03-01T04:02:59;460.35;;;435.48;;
57643;SDS011;43474;46.510;6.686;2023-03-01T04:05:26;430.88;;;407.88;;
57643;SDS011;43474;46.510;6.686;2023-03-01T04:07:52;457.40;;;433.08;;
57643;SDS011;43474;46.510;6.686;2023-03-01T04:10:30;394.30;;;372.85;;
57643;SDS011;43474;46.510;6.686;2023-03-01T04:12:57;408.63;;;386.83;;
57643;SDS011;43474;46.510;6.686;2023-03-01T04:15:23;415.50;;;393.83;;
57643;SDS011;43474;46.510;6.686;2023-03-01T04:17:51;437.83;;;414.55;;
57643;SDS011;43474;46.510;6.686;2023-03-01T04:20:25;453.23;;;428.50;;
57643;SDS011;43474;46.510;6.686;2023-03-01T04:25:52;412.52;;;390.77;;
57643;SDS011;43474;46.510;6.686;2023-03-01T04:28:26;460.63;;;435.85;;
57643;SDS011;43474;46.510;6.686;2023-03-01T04:31:01;462.30;;;437.15;;
57643;SDS011;43474;46.510;6.686;2023-03-01T04:33:41;397.17;;;376.52;;
57643;SDS011;43474;46.510;6.686;2023-03-01T04:36:09;473.88;;;447.75;;
57643;SDS011;43474;46.510;6.686;2023-03-01T04:38:36;417.00;;;394.80;;
57643;SDS011;43474;46.510;6.686;2023-03-01T04:41:03;353.83;;;334.98;;
57643;SDS011;43474;46.510;6.686;2023-03-01T04:43:30;410.23;;;388.63;;
57643;SDS011;43474;46.510;6.686;2023-03-01T04:45:59;459.92;;;435.15;;
57643;SDS011;43474;46.510;6.686;2023-03-01T04:48:28;450.90;;;426.48;;
57643;SDS011;43474;46.510;6.686;2023-03-01T04:50:54;430.67;;;407.95;;
57643;SDS011;43474;46.510;6.686;2023-03-01T04:53:19;447.17;;;423.02;;
57643;SDS011;43474;46.510;6.686;2023-03-01T04:55:45;469.63;;;444.45;;
57643;SDS011;43474;46.510;6.686;2023-03-01T04:58:11;452.35;;;427.60;;
57643;SDS011;43474;46.510;6.686;2023-03-01T05:00:36;465.02;;;439.40;;
57643;SDS011;43474;46.510;6.686;2023-03-01T05:03:02;415.98;;;393.23;;
57643;SDS011;43474;46.510;6.686;2023-03-01T05:05:30;454.63;;;429.60;;
57643;SDS011;43474;46.510;6.686;2023-03-01T05:07:59;449.80;;;425.60;;
57643;SDS011;43474;46.510;6.686;2023-03-01T05:10:30;381.98;;;362.30;;
57643;SDS011;43474;46.510;6.686;2023-03-01T05:12:57;378.23;;;357.35;;
57643;SDS011;43474;46.510;6.686;2023-03-01T05:15:24;459.75;;;434.48;;
57643;SDS011;43474;46.510;6.686;2023-03-01T05:17:52;447.88;;;423.77;;
57643;SDS011;43474;46.510;6.686;2023-03-01T05:20:19;440.20;;;416.15;;
57643;SDS011;43474;46.510;6.686;2023-03-01T05:22:52;427.40;;;404.55;;
57643;SDS011;43474;46.510;6.686;2023-03-01T05:25:20;437.88;;;414.25;;
57643;SDS011;43474;46.510;6.686;2023-03-01T05:27:46;458.17;;;433.08;;
57643;SDS011;43474;46.510;6.686;2023-03-01T05:30:13;452.98;;;428.48;;
57643;SDS011;43474;46.510;6.686;2023-03-01T05:32:44;453.73;;;429.33;;
57643;SDS011;43474;46.510;6.686;2023-03-01T05:35:15;440.85;;;417.15;;
57643;SDS011;43474;46.510;6.686;2023-03-01T05:37:42;400.75;;;379.50;;
57643;SDS011;43474;46.510;6.686;2023-03-01T05:40:13;456.58;;;432.17;;
57643;SDS011;43474;46.510;6.686;2023-03-01T05:42:47;449.42;;;425.13;;
57643;SDS011;43474;46.510;6.686;2023-03-01T05:45:14;459.23;;;433.88;;
57643;SDS011;43474;46.510;6.686;2023-03-01T05:47:41;451.25;;;426.60;;
57643;SDS011;43474;46.510;6.686;2023-03-01T05:50:14;330.33;;;313.38;;
57643;SDS011;43474;46.510;6.686;2023-03-01T05:52:47;387.55;;;367.38;;
57643;SDS011;43474;46.510;6.686;2023-03-01T05:55:15;345.42;;;328.10;;
57643;SDS011;43474;46.510;6.686;2023-03-01T05:57:42;380.70;;;361.05;;
57643;SDS011;43474;46.510;6.686;2023-03-01T06:00:08;359.38;;;340.98;;
57643;SDS011;43474;46.510;6.686;2023-03-01T06:02:34;423.13;;;400.30;;
57643;SDS011;43474;46.510;6.686;2023-03-01T06:05:00;411.30;;;389.67;;
57643;SDS011;43474;46.510;6.686;2023-03-01T06:07:26;464.50;;;439.42;;
57643;SDS011;43474;46.510;6.686;2023-03-01T06:09:51;434.88;;;411.40;;
57643;SDS011;43474;46.510;6.686;2023-03-01T06:12:17;446.52;;;422.27;;
57643;SDS011;43474;46.510;6.686;2023-03-01T06:14:42;476.23;;;449.80;;
57643;SDS011;43474;46.510;6.686;2023-03-01T06:17:08;443.95;;;419.63;;
57643;SDS011;43474;46.510;6.686;2023-03-01T06:19:33;399.52;;;378.00;;
57643;SDS011;43474;46.510;6.686;2023-03-01T06:21:59;440.75;;;416.77;;
57643;SDS011;43474;46.510;6.686;2023-03-01T06:24:25;382.05;;;361.77;;
57643;SDS011;43474;46.510;6.686;2023-03-01T06:26:52;464.63;;;439.00;;
57643;SDS011;43474;46.510;6.686;2023-03-01T06:29:18;418.52;;;395.88;;
57643;SDS011;43474;46.510;6.686;2023-03-01T06:31:43;468.20;;;442.77;;
57643;SDS011;43474;46.510;6.686;2023-03-01T06:34:11;428.27;;;405.42;;
57643;SDS011;43474;46.510;6.686;2023-03-01T06:36:38;458.25;;;432.88;;
57643;SDS011;43474;46.510;6.686;2023-03-01T06:39:05;448.40;;;422.83;;
57643;SDS011;43474;46.510;6.686;2023-03-01T06:41:31;395.67;;;375.20;;
57643;SDS011;43474;46.510;6.686;2023-03-01T06:43:56;454.55;;;429.83;;
57643;SDS011;43474;46.510;6.686;2023-03-01T06:46:22;468.58;;;442.92;;
57643;SDS011;43474;46.510;6.686;2023-03-01T06:48:47;471.33;;;445.70;;
57643;SDS011;43474;46.510;6.686;2023-03-01T06:51:13;449.73;;;425.02;;
57643;SDS011;43474;46.510;6.686;2023-03-01T06:53:38;406.02;;;384.35;;
57643;SDS011;43474;46.510;6.686;2023-03-01T06:56:04;464.63;;;438.92;;
57643;SDS011;43474;46.510;6.686;2023-03-01T06:58:30;369.17;;;349.65;;
57643;SDS011;43474;46.510;6.686;2023-03-01T07:00:56;447.92;;;423.58;;
57643;SDS011;43474;46.510;6.686;2023-03-01T07:03:21;421.90;;;399.50;;
57643;SDS011;43474;46.510;6.686;2023-03-01T07:05:51;411.50;;;389.10;;
57643;SDS011;43474;46.510;6.686;2023-03-01T07:08:17;465.95;;;440.13;;
57643;SDS011;43474;46.510;6.686;2023-03-01T07:10:43;458.08;;;433.40;;
57643;SDS011;43474;46.510;6.686;2023-03-01T07:13:09;473.15;;;447.20;;
57643;SDS011;43474;46.510;6.686;2023-03-01T07:15:35;410.05;;;388.10;;
57643;SDS011;43474;46.510;6.686;2023-03-01T07:18:01;459.08;;;433.35;;
57643;SDS011;43474;46.510;6.686;2023-03-01T07:20:27;404.00;;;382.35;;
57643;SDS011;43474;46.510;6.686;2023-03-01T07:22:53;441.23;;;416.67;;
57643;SDS011;43474;46.510;6.686;2023-03-01T07:27:09;329.70;;;311.63;;
57643;SDS011;43474;46.510;6.686;2023-03-01T07:29:35;403.63;;;380.75;;
57643;SDS011;43474;46.510;6.686;2023-03-01T07:32:04;423.23;;;399.92;;
57643;SDS011;43474;46.510;6.686;2023-03-01T07:34:30;423.70;;;401.05;;
57643;SDS011;43474;46.510;6.686;2023-03-01T07:36:56;417.45;;;395.00;;
57643;SDS011;43474;46.510;6.686;2023-03-01T07:39:22;457.67;;;432.95;;
57643;SDS011;43474;46.510;6.686;2023-03-01T07:41:50;449.52;;;424.73;;
57643;SDS011;43474;46.510;6.686;2023-03-01T07:44:16;446.05;;;421.05;;
57643;SDS011;43474;46.510;6.686;2023-03-01T07:46:42;422.13;;;399.20;;
57643;SDS011;43474;46.510;6.686;2023-03-01T07:49:09;410.02;;;388.00;;
57643;SDS011;43474;46.510;6.686;2023-03-01T07:51:35;440.45;;;416.77;;
57643;SDS011;43474;46.510;6.686;2023-03-01T07:54:01;386.80;;;366.40;;
57643;SDS011;43474;46.510;6.686;2023-03-01T07:56:26;426.15;;;403.27;;
57643;SDS011;43474;46.510;6.686;2023-03-01T07:58:52;416.45;;;394.13;;
57643;SDS011;43474;46.510;6.686;2023-03-01T08:01:18;440.05;;;416.00;;
57643;SDS011;43474;46.510;6.686;2023-03-01T08:03:46;409.88;;;388.05;;
57643;SDS011;43474;46.510;6.686;2023-03-01T08:06:12;406.58;;;385.08;;
57643;SDS011;43474;46.510;6.686;2023-03-01T08:08:39;424.90;;;402.35;;
57643;SDS011;43474;46.510;6.686;2023-03-01T08:11:05;407.83;;;386.27;;
57643;SDS011;43474;46.510;6.686;2023-03-01T08:13:32;408.08;;;386.02;;
57643;SDS011;43474;46.510;6.686;2023-03-01T08:16:02;363.25;;;344.75;;
57643;SDS011;43474;46.510;6.686;2023-03-01T08:18:29;381.43;;;361.70;;
57643;SDS011;43474;46.510;6.686;2023-03-01T08:20:54;395.15;;;374.00;;
57643;SDS011;43474;46.510;6.686;2023-03-01T08:23:20;398.05;;;376.70;;
57643;SDS011;43474;46.510;6.686;2023-03-01T08:25:45;393.25;;;372.70;;
57643;SDS011;43474;46.510;6.686;2023-03-01T08:28:11;397.80;;;376.23;;
57643;SDS011;43474;46.510;6.686;2023-03-01T08:30:36;394.05;;;372.60;;
57643;SDS011;43474;46.510;6.686;2023-03-01T08:33:02;397.25;;;376.50;;
57643;SDS011;43474;46.510;6.686;2023-03-01T08:35:27;392.55;;;371.42;;
57643;SDS011;43474;46.510;6.686;2023-03-01T08:37:53;363.25;;;344.48;;
57643;SDS011;43474;46.510;6.686;2023-03-01T08:40:18;393.23;;;372.00;;
57643;SDS011;43474;46.510;6.686;2023-03-01T08:42:44;375.42;;;355.90;;
57643;SDS011;43474;46.510;6.686;2023-03-01T08:45:10;379.35;;;359.00;;
57643;SDS011;43474;46.510;6.686;2023-03-01T08:47:36;373.80;;;353.58;;
57643;SDS011;43474;46.510;6.686;2023-03-01T08:50:02;360.58;;;341.13;;
57643;SDS011;43474;46.510;6.686;2023-03-01T08:52:29;359.50;;;340.70;;
57643;SDS011;43474;46.510;6.686;2023-03-01T08:54:55;348.42;;;329.75;;
57643;SDS011;43474;46.510;6.686;2023-03-01T08:57:21;352.35;;;333.33;;
57643;SDS011;43474;46.510;6.686;2023-03-01T08:59:47;346.67;;;328.05;;
57643;SDS011;43474;46.510;6.686;2023-03-01T09:02:13;351.65;;;333.52;;
57643;SDS011;43474;46.510;6.686;2023-03-01T09:04:41;329.08;;;312.02;;
57643;SDS011;43474;46.510;6.686;2023-03-01T09:07:07;356.45;;;337.55;;
57643;SDS011;43474;46.510;6.686;2023-03-01T09:09:34;421.25;;;398.48;;
57643;SDS011;43474;46.510;6.686;2023-03-01T09:12:00;343.25;;;324.83;;
57643;SDS011;43474;46.510;6.686;2023-03-01T09:14:26;342.13;;;324.38;;
57643;SDS011;43474;46.510;6.686;2023-03-01T09:16:52;353.23;;;335.08;;
57643;SDS011;43474;46.510;6.686;2023-03-01T09:19:17;332.58;;;315.23;;
57643;SDS011;43474;46.510;6.686;2023-03-01T09:21:43;320.05;;;303.35;;
57643;SDS011;43474;46.510;6.686;2023-03-01T09:24:19;315.88;;;299.63;;
57643;SDS011;43474;46.510;6.686;2023-03-01T09:26:46;309.88;;;292.65;;
57643;SDS011;43474;46.510;6.686;2023-03-01T09:29:12;305.17;;;288.95;;
57643;SDS011;43474;46.510;6.686;2023-03-01T09:31:39;338.73;;;320.98;;
57643;SDS011;43474;46.510;6.686;2023-03-01T09:34:06;305.08;;;289.00;;
57643;SDS011;43474;46.510;6.686;2023-03-01T09:36:32;342.58;;;325.48;;
57643;SDS011;43474;46.510;6.686;2023-03-01T09:38:58;313.90;;;297.73;;
57643;SDS011;43474;46.510;6.686;2023-03-01T09:41:35;270.20;;;255.80;;
57643;SDS011;43474;46.510;6.686;2023-03-01T09:46:47;319.42;;;302.48;;
57643;SDS011;43474;46.510;6.686;2023-03-01T09:49:21;269.38;;;255.38;;
57643;SDS011;43474;46.510;6.686;2023-03-01T09:51:58;281.45;;;266.88;;
57643;SDS011;43474;46.510;6.686;2023-03-01T09:54:28;268.17;;;253.85;;
57643;SDS011;43474;46.510;6.686;2023-03-01T09:56:57;299.85;;;284.75;;
57643;SDS011;43474;46.510;6.686;2023-03-01T10:02:32;266.20;;;252.60;;
57643;SDS011;43474;46.510;6.686;2023-03-01T10:05:49;278.02;;;263.15;;
57643;SDS011;43474;46.510;6.686;2023-03-01T10:10:45;241.65;;;228.88;;
57643;SDS011;43474;46.510;6.686;2023-03-01T10:13:21;245.63;;;232.45;;
57643;SDS011;43474;46.510;6.686;2023-03-01T10:15:52;248.90;;;235.60;;
57643;SDS011;43474;46.510;6.686;2023-03-01T10:18:25;273.33;;;259.23;;
57643;SDS011;43474;46.510;6.686;2023-03-01T10:20:55;242.27;;;229.45;;
57643;SDS011;43474;46.510;6.686;2023-03-01T10:23:25;205.65;;;194.70;;
57643;SDS011;43474;46.510;6.686;2023-03-01T10:31:24;235.23;;;222.98;;
57643;SDS011;43474;46.510;6.686;2023-03-01T10:33:54;218.15;;;206.27;;
57643;SDS011;43474;46.510;6.686;2023-03-01T10:36:22;189.63;;;179.23;;
57643;SDS011;43474;46.510;6.686;2023-03-01T10:38:52;209.25;;;197.00;;
57643;SDS011;43474;46.510;6.686;2023-03-01T10:43:53;269.70;;;255.90;;
57643;SDS011;43474;46.510;6.686;2023-03-01T10:46:41;267.08;;;253.63;;
57643;SDS011;43474;46.510;6.686;2023-03-01T10:51:46;171.85;;;162.40;;
57643;SDS011;43474;46.510;6.686;2023-03-01T10:54:15;160.10;;;150.68;;
57643;SDS011;43474;46.510;6.686;2023-03-01T10:56:48;172.32;;;162.48;;
57643;SDS011;43474;46.510;6.686;2023-03-01T10:59:51;165.77;;;156.52;;
57643;SDS011;43474;46.510;6.686;2023-03-01T11:02:27;152.32;;;143.68;;
57643;SDS011;43474;46.510;6.686;2023-03-01T11:05:03;134.35;;;126.50;;
57643;SDS011;43474;46.510;6.686;2023-03-01T11:07:49;138.15;;;130.35;;
57643;SDS011;43474;46.510;6.686;2023-03-01T11:10:20;156.32;;;147.50;;
57643;SDS011;43474;46.510;6.686;2023-03-01T11:12:48;115.13;;;107.72;;
57643;SDS011;43474;46.510;6.686;2023-03-01T11:15:20;100.78;;;93.97;;
57643;SDS011;43474;46.510;6.686;2023-03-01T11:17:49;100.72;;;94.03;;
57643;SDS011;43474;46.510;6.686;2023-03-01T11:20:19;102.72;;;95.63;;
57643;SDS011;43474;46.510;6.686;2023-03-01T11:22:55;158.70;;;149.80;;
57643;SDS011;43474;46.510;6.686;2023-03-01T11:25:26;128.40;;;120.95;;
57643;SDS011;43474;46.510;6.686;2023-03-01T11:27:56;105.15;;;98.43;;
57643;SDS011;43474;46.510;6.686;2023-03-01T11:30:35;111.00;;;104.07;;
57643;SDS011;43474;46.510;6.686;2023-03-01T11:33:20;82.68;;;76.90;;
57643;SDS011;43474;46.510;6.686;2023-03-01T11:35:56;86.55;;;80.50;;
57643;SDS011;43474;46.510;6.686;2023-03-01T11:38:25;75.22;;;69.82;;
57643;SDS011;43474;46.510;6.686;2023-03-01T11:48:59;84.55;;;78.75;;
57643;SDS011;43474;46.510;6.686;2023-03-01T11:51:38;73.35;;;68.13;;
57643;SDS011;43474;46.510;6.686;2023-03-01T11:57:20;86.28;;;80.63;;
57643;SDS011;43474;46.510;6.686;2023-03-01T12:00:07;105.03;;;98.47;;
57643;SDS011;43474;46.510;6.686;2023-03-01T12:02:57;65.45;;;60.47;;
57643;SDS011;43474;46.510;6.686;2023-03-01T12:05:52;46.83;;;42.70;;
57643;SDS011;43474;46.510;6.686;2023-03-01T12:08:49;61.88;;;57.30;;
57643;SDS011;43474;46.510;6.686;2023-03-01T12:11:47;39.55;;;35.83;;
57643;SDS011;43474;46.510;6.686;2023-03-01T12:20:13;73.90;;;69.50;;
57643;SDS011;43474;46.510;6.686;2023-03-01T12:25:43;35.30;;;31.50;;
57643;SDS011;43474;46.510;6.686;2023-03-01T12:28:18;31.00;;;27.10;;
57643;SDS011;43474;46.510;6.686;2023-03-01T12:34:20;35.83;;;32.13;;
57643;SDS011;43474;46.510;6.686;2023-03-01T12:39:43;40.53;;;36.03;;
57643;SDS011;43474;46.510;6.686;2023-03-01T12:42:46;41.97;;;37.97;;
57643;SDS011;43474;46.510;6.686;2023-03-01T12:50:21;39.85;;;36.15;;
57643;SDS011;43474;46.510;6.686;2023-03-01T12:52:50;39.85;;;31.15;;
57643;SDS011;43474;46.510;6.686;2023-03-01T12:55:29;38.47;;;34.72;;
57643;SDS011;43474;46.510;6.686;2023-03-01T12:58:04;31.10;;;27.02;;
57643;SDS011;43474;46.510;6.686;2023-03-01T13:01:09;37.10;;;27.60;;
57643;SDS011;43474;46.510;6.686;2023-03-01T13:06:55;38.78;;;30.58;;
57643;SDS011;43474;46.510;6.686;2023-03-01T13:20:19;31.85;;;28.38;;
57643;SDS011;43474;46.510;6.686;2023-03-01T13:22:46;41.60;;;26.98;;
57643;SDS011;43474;46.510;6.686;2023-03-01T13:25:14;41.28;;;37.28;;
57643;SDS011;43474;46.510;6.686;2023-03-01T13:27:45;41.22;;;28.45;;
57643;SDS011;43474;46.510;6.686;2023-03-01T13:35:51;33.25;;;23.85;;
57643;SDS011;43474;46.510;6.686;2023-03-01T13:41:03;28.42;;;20.90;;
57643;SDS011;43474;46.510;6.686;2023-03-01T13:43:30;32.72;;;22.75;;
57643;SDS011;43474;46.510;6.686;2023-03-01T13:45:59;35.38;;;24.27;;
57643;SDS011;43474;46.510;6.686;2023-03-01T13:48:32;31.50;;;23.52;;
57643;SDS011;43474;46.510;6.686;2023-03-01T13:50:59;34.40;;;25.48;;
57643;SDS011;43474;46.510;6.686;2023-03-01T13:53:33;37.58;;;23.52;;
57643;SDS011;43474;46.510;6.686;2023-03-01T13:56:02;31.27;;;27.95;;
57643;SDS011;43474;46.510;6.686;2023-03-01T13:58:33;31.30;;;25.80;;
57643;SDS011;43474;46.510;6.686;2023-03-01T14:01:33;35.03;;;25.30;;
57643;SDS011;43474;46.510;6.686;2023-03-01T14:04:00;43.20;;;24.33;;
57643;SDS011;43474;46.510;6.686;2023-03-01T14:06:28;36.28;;;25.73;;
57643;SDS011;43474;46.510;6.686;2023-03-01T14:09:15;34.25;;;28.52;;
57643;SDS011;43474;46.510;6.686;2023-03-01T14:14:34;32.53;;;26.58;;
57643;SDS011;43474;46.510;6.686;2023-03-01T14:17:13;45.47;;;41.33;;
57643;SDS011;43474;46.510;6.686;2023-03-01T14:19:54;37.17;;;33.15;;
57643;SDS011;43474;46.510;6.686;2023-03-01T14:22:43;40.75;;;36.92;;
57643;SDS011;43474;46.510;6.686;2023-03-01T14:27:58;42.22;;;38.03;;
57643;SDS011;43474;46.510;6.686;2023-03-01T14:30:27;52.53;;;47.83;;
57643;SDS011;43474;46.510;6.686;2023-03-01T14:35:26;59.25;;;54.35;;
57643;SDS011;43474;46.510;6.686;2023-03-01T14:37:58;46.97;;;42.63;;
57643;SDS011;43474;46.510;6.686;2023-03-01T14:40:27;48.90;;;44.50;;
57643;SDS011;43474;46.510;6.686;2023-03-01T14:43:08;41.15;;;36.83;;
57643;SDS011;43474;46.510;6.686;2023-03-01T14:45:35;52.80;;;48.22;;
57643;SDS011;43474;46.510;6.686;2023-03-01T14:48:02;48.47;;;44.22;;
57643;SDS011;43474;46.510;6.686;2023-03-01T14:50:32;39.28;;;34.88;;
57643;SDS011;43474;46.510;6.686;2023-03-01T14:53:00;39.70;;;32.83;;
57643;SDS011;43474;46.510;6.686;2023-03-01T14:55:30;40.33;;;31.08;;
57643;SDS011;43474;46.510;6.686;2023-03-01T14:57:59;66.22;;;61.72;;
57643;SDS011;43474;46.510;6.686;2023-03-01T15:00:27;57.30;;;43.83;;
57643;SDS011;43474;46.510;6.686;2023-03-01T15:02:56;46.78;;;42.00;;
57643;SDS011;43474;46.510;6.686;2023-03-01T15:05:32;38.78;;;34.72;;
57643;SDS011;43474;46.510;6.686;2023-03-01T15:08:00;44.70;;;40.30;;
57643;SDS011;43474;46.510;6.686;2023-03-01T15:10:28;60.17;;;55.63;;
57643;SDS011;43474;46.510;6.686;2023-03-01T15:12:56;66.40;;;61.42;;
57643;SDS011;43474;46.510;6.686;2023-03-01T15:17:54;66.28;;;61.50;;
57643;SDS011;43474;46.510;6.686;2023-03-01T15:20:22;62.10;;;57.42;;
57643;SDS011;43474;46.510;6.686;2023-03-01T15:22:51;77.15;;;71.82;;
57643;SDS011;43474;46.510;6.686;2023-03-01T15:25:18;68.25;;;62.50;;
57643;SDS011;43474;46.510;6.686;2023-03-01T15:27:47;67.93;;;62.78;;
57643;SDS011;43474;46.510;6.686;2023-03-01T15:30:33;62.78;;;57.45;;
57643;SDS011;43474;46.510;6.686;2023-03-01T15:35:52;70.45;;;64.65;;
57643;SDS011;43474;46.510;6.686;2023-03-01T15:38:24;69.68;;;64.50;;
57643;SDS011;43474;46.510;6.686;2023-03-01T15:40:57;80.95;;;74.55;;
57643;SDS011;43474;46.510;6.686;2023-03-01T15:43:41;72.45;;;66.88;;
57643;SDS011;43474;46.510;6.686;2023-03-01T15:46:14;88.25;;;82.68;;
57643;SDS011;43474;46.510;6.686;2023-03-01T15:48:46;113.68;;;107.28;;
57643;SDS011;43474;46.510;6.686;2023-03-01T15:51:14;107.95;;;101.03;;
57643;SDS011;43474;46.510;6.686;2023-03-01T15:53:41;88.43;;;82.13;;
57643;SDS011;43474;46.510;6.686;2023-03-01T15:56:12;90.65;;;84.70;;
57643;SDS011;43474;46.510;6.686;2023-03-01T15:58:38;85.13;;;78.95;;
57643;SDS011;43474;46.510;6.686;2023-03-01T16:01:07;89.25;;;82.72;;
57643;SDS011;43474;46.510;6.686;2023-03-01T16:03:38;79.25;;;73.05;;